createdAt,value
2017-03-26T00:00:23.004Z,19.42
2017-03-26T00:01:22.297Z,17.15
2017-03-26T00:02:21.606Z,19.15
2017-03-26T00:03:20.986Z,19.83
2017-03-26T00:04:20.289Z,17.73
2017-03-26T00:05:19.560Z,16.55
2017-03-26T00:06:18.887Z,17.75
2017-03-26T00:07:18.233Z,18.27
2017-03-26T00:08:17.532Z,18.13
2017-03-26T00:09:16.819Z,19.28
2017-03-26T00:10:16.108Z,19.95
2017-03-26T00:11:15.523Z,18.70
2017-03-26T00:12:14.809Z,18.72
2017-03-26T00:13:14.115Z,19.65
2017-03-26T00:14:13.508Z,18.25
2017-03-26T00:15:12.955Z,19.32
2017-03-26T00:16:12.270Z,16.30
2017-03-26T00:17:11.567Z,18.02
2017-03-26T00:18:10.874Z,19.28
2017-03-26T00:19:10.192Z,19.10
2017-03-26T00:20:09.495Z,19.82
2017-03-26T00:21:08.814Z,19.07
2017-03-26T00:22:08.370Z,18.88
2017-03-26T00:23:07.682Z,18.45
2017-03-26T00:24:07.014Z,19.73
2017-03-26T00:25:06.323Z,20.65
2017-03-26T00:26:05.620Z,18.53
2017-03-26T00:27:04.988Z,19.15
2017-03-26T00:28:04.292Z,19.50
2017-03-26T00:29:03.581Z,18.52
2017-03-26T00:30:03.649Z,20.33
2017-03-26T00:31:02.904Z,18.85
2017-03-26T00:32:02.245Z,20.12
2017-03-26T00:33:01.537Z,20.17
2017-03-26T00:34:00.820Z,19.98
2017-03-26T00:35:00.185Z,18.33
2017-03-26T00:35:59.889Z,18.13
2017-03-26T00:36:59.201Z,20.55
2017-03-26T00:38:00.893Z,18.43
2017-03-26T00:39:00.210Z,19.58
2017-03-26T00:40:05.033Z,18.07
2017-03-26T00:41:04.284Z,18.25
2017-03-26T00:42:03.540Z,20.20
2017-03-26T00:43:02.834Z,21.70
2017-03-26T00:44:02.230Z,18.33
2017-03-26T00:45:01.489Z,19.25
2017-03-26T00:46:00.808Z,21.78
2017-03-26T00:47:00.073Z,20.75
2017-03-26T00:47:59.393Z,20.00
2017-03-26T00:48:58.751Z,20.92
2017-03-26T00:49:58.043Z,18.82
2017-03-26T00:50:57.324Z,19.70
2017-03-26T00:51:57.065Z,19.68
2017-03-26T00:52:56.342Z,19.78
2017-03-26T00:53:55.734Z,22.03
2017-03-26T00:54:55.024Z,20.97
2017-03-26T00:55:54.386Z,21.28
2017-03-26T00:56:53.676Z,20.47
2017-03-26T00:57:52.974Z,21.32
2017-03-26T00:58:52.273Z,22.47
2017-03-26T00:59:51.511Z,20.15
2017-03-26T01:00:50.810Z,21.95
2017-03-26T01:01:50.148Z,22.35
2017-03-26T01:02:49.431Z,20.13
2017-03-26T01:03:49.213Z,23.77
2017-03-26T01:04:48.477Z,24.43
2017-03-26T01:05:47.854Z,22.70
2017-03-26T01:06:47.117Z,22.65
2017-03-26T01:07:46.453Z,22.87
2017-03-26T01:08:45.706Z,24.85
2017-03-26T01:09:45.196Z,23.42
2017-03-26T01:10:44.496Z,23.33
2017-03-26T01:11:43.827Z,21.00
2017-03-26T01:12:43.133Z,22.43
2017-03-26T01:13:42.467Z,19.45
2017-03-26T01:14:42.599Z,21.20
2017-03-26T01:15:42.643Z,18.60
2017-03-26T01:16:41.937Z,21.57
2017-03-26T01:17:41.281Z,19.18
2017-03-26T01:18:41.302Z,19.62
2017-03-26T01:19:40.628Z,18.90
2017-03-26T01:20:40.453Z,20.30
2017-03-26T01:21:39.736Z,19.47
2017-03-26T01:22:39.033Z,19.65
2017-03-26T01:23:38.353Z,20.00
2017-03-26T01:24:37.633Z,20.50
2017-03-26T01:25:36.934Z,20.98
2017-03-26T01:26:36.279Z,20.48
2017-03-26T01:27:36.396Z,20.75
2017-03-26T01:28:35.687Z,18.98
2017-03-26T01:29:35.008Z,18.25
2017-03-26T01:30:35.012Z,17.25
2017-03-26T01:31:34.238Z,17.80
2017-03-26T01:32:33.561Z,19.43
2017-03-26T01:33:32.915Z,20.20
2017-03-26T01:34:32.226Z,19.53
2017-03-26T01:35:31.638Z,19.80
2017-03-26T01:36:31.744Z,20.63
2017-03-26T01:37:31.083Z,20.23
2017-03-26T01:38:31.162Z,20.77
2017-03-26T01:39:30.528Z,18.45
2017-03-26T01:40:29.773Z,18.20
2017-03-26T01:41:29.162Z,19.88
2017-03-26T01:42:29.182Z,19.58
2017-03-26T01:43:28.882Z,19.80
2017-03-26T01:44:28.493Z,19.50
2017-03-26T01:45:27.931Z,19.52
2017-03-26T01:46:27.224Z,20.10
2017-03-26T01:47:26.569Z,18.93
2017-03-26T01:48:25.865Z,19.73
2017-03-26T01:49:25.167Z,19.72
2017-03-26T01:50:24.520Z,19.98
2017-03-26T01:51:23.859Z,20.83
2017-03-26T01:52:23.161Z,19.52
2017-03-26T01:53:22.481Z,18.97
2017-03-26T01:54:21.850Z,19.27
2017-03-26T01:55:21.202Z,21.18
2017-03-26T01:56:20.549Z,19.98
2017-03-26T01:57:19.888Z,21.40
2017-03-26T01:58:19.173Z,19.97
2017-03-26T01:59:18.565Z,19.40
2017-03-26T02:00:17.993Z,20.35
2017-03-26T02:01:17.313Z,19.15
2017-03-26T02:02:16.673Z,19.40
2017-03-26T02:03:15.978Z,20.50
2017-03-26T02:04:16.051Z,20.08
2017-03-26T02:05:15.439Z,18.87
2017-03-26T02:06:14.759Z,18.25
2017-03-26T02:07:14.082Z,22.13
2017-03-26T02:08:13.353Z,20.60
2017-03-26T02:09:13.431Z,20.65
2017-03-26T02:10:12.757Z,19.25
2017-03-26T02:11:12.068Z,19.50
2017-03-26T02:12:11.359Z,22.50
2017-03-26T02:13:10.639Z,21.90
2017-03-26T02:14:10.337Z,22.60
2017-03-26T02:15:09.669Z,24.77
2017-03-26T02:16:08.992Z,25.03
2017-03-26T02:17:08.333Z,24.32
2017-03-26T02:18:07.661Z,23.25
2017-03-26T02:19:06.975Z,24.30
2017-03-26T02:20:06.305Z,25.28
2017-03-26T02:21:05.592Z,26.67
2017-03-26T02:22:05.024Z,23.53
2017-03-26T02:23:04.302Z,21.85
2017-03-26T02:24:03.654Z,20.78
2017-03-26T02:25:03.273Z,19.83
2017-03-26T02:26:02.528Z,19.25
2017-03-26T02:27:01.817Z,20.37
2017-03-26T02:28:01.095Z,19.93
2017-03-26T02:29:00.408Z,21.57
2017-03-26T02:29:59.823Z,19.72
2017-03-26T02:30:59.182Z,18.77
2017-03-26T02:31:58.478Z,20.65
2017-03-26T02:32:57.763Z,20.17
2017-03-26T02:33:57.055Z,18.62
2017-03-26T02:34:56.330Z,19.78
2017-03-26T02:35:55.656Z,18.97
2017-03-26T02:36:54.907Z,18.25
2017-03-26T02:37:54.269Z,19.93
2017-03-26T02:38:53.682Z,18.50
2017-03-26T02:39:52.968Z,19.48
2017-03-26T02:40:52.269Z,19.68
2017-03-26T02:41:51.568Z,19.25
2017-03-26T02:42:51.065Z,21.05
2017-03-26T02:43:50.424Z,19.83
2017-03-26T02:44:49.756Z,19.32
2017-03-26T02:45:49.107Z,20.05
2017-03-26T02:46:48.549Z,19.02
2017-03-26T02:47:47.849Z,19.53
2017-03-26T02:48:47.167Z,19.83
2017-03-26T02:49:46.578Z,21.65
2017-03-26T02:50:45.924Z,19.70
2017-03-26T02:51:45.209Z,20.77
2017-03-26T02:52:44.490Z,22.72
2017-03-26T02:53:43.787Z,21.18
2017-03-26T02:54:43.201Z,22.15
2017-03-26T02:55:42.501Z,20.10
2017-03-26T02:56:41.778Z,21.02
2017-03-26T02:57:41.133Z,22.70
2017-03-26T02:58:40.399Z,23.78
2017-03-26T02:59:39.665Z,23.87
2017-03-26T03:00:39.325Z,22.35
2017-03-26T03:01:38.605Z,20.35
2017-03-26T03:02:37.912Z,22.33
2017-03-26T03:03:37.263Z,22.92
2017-03-26T03:04:36.537Z,23.37
2017-03-26T03:05:35.864Z,23.93
2017-03-26T03:06:35.233Z,24.22
2017-03-26T03:07:34.540Z,22.52
2017-03-26T03:08:33.836Z,21.42
2017-03-26T03:09:33.120Z,24.45
2017-03-26T03:10:33.183Z,22.80
2017-03-26T03:11:32.484Z,21.25
2017-03-26T03:12:31.775Z,21.27
2017-03-26T03:13:38.069Z,22.45
2017-03-26T03:14:37.429Z,20.78
2017-03-26T03:15:36.764Z,20.97
2017-03-26T03:16:36.109Z,20.93
2017-03-26T03:17:35.426Z,22.45
2017-03-26T03:18:35.456Z,24.45
2017-03-26T03:19:34.732Z,20.87
2017-03-26T03:20:34.037Z,22.93
2017-03-26T03:21:33.366Z,22.70
2017-03-26T03:22:33.197Z,23.00
2017-03-26T03:23:32.487Z,22.53
2017-03-26T03:24:31.790Z,23.20
2017-03-26T03:25:31.024Z,22.45
2017-03-26T03:26:30.415Z,21.98
2017-03-26T03:27:29.694Z,22.07
2017-03-26T03:28:29.170Z,22.25
2017-03-26T03:29:28.442Z,22.40
2017-03-26T03:30:27.726Z,21.63
2017-03-26T03:31:27.051Z,21.75
2017-03-26T03:32:26.401Z,21.78
2017-03-26T03:33:25.785Z,23.58
2017-03-26T03:34:25.045Z,24.37
2017-03-26T03:35:24.332Z,25.83
2017-03-26T03:36:23.672Z,25.33
2017-03-26T03:37:22.951Z,26.32
2017-03-26T03:38:22.310Z,24.32
2017-03-26T03:39:21.677Z,24.93
2017-03-26T03:40:20.983Z,24.23
2017-03-26T03:41:20.685Z,24.70
2017-03-26T03:42:20.049Z,22.20
2017-03-26T03:43:19.395Z,23.65
2017-03-26T03:44:18.715Z,23.87
2017-03-26T03:45:18.042Z,25.20
2017-03-26T03:46:17.394Z,22.52
2017-03-26T03:47:16.735Z,21.42
2017-03-26T03:48:16.011Z,22.25
2017-03-26T03:49:15.328Z,21.75
2017-03-26T03:50:14.626Z,23.93
2017-03-26T03:51:13.957Z,20.90
2017-03-26T03:52:13.309Z,23.58
2017-03-26T03:53:12.653Z,25.60
2017-03-26T03:54:12.097Z,27.37
2017-03-26T03:55:11.385Z,25.12
2017-03-26T03:56:10.636Z,26.85
2017-03-26T03:57:10.037Z,24.07
2017-03-26T03:58:09.392Z,24.22
2017-03-26T03:59:08.725Z,24.42
2017-03-26T04:00:08.015Z,24.22
2017-03-26T04:01:07.303Z,22.97
2017-03-26T04:02:06.668Z,24.83
2017-03-26T04:03:06.044Z,23.90
2017-03-26T04:04:05.356Z,22.93
2017-03-26T04:05:04.686Z,21.78
2017-03-26T04:06:03.965Z,24.30
2017-03-26T04:07:03.252Z,22.85
2017-03-26T04:08:02.508Z,22.62
2017-03-26T04:09:02.032Z,22.95
2017-03-26T04:10:01.352Z,22.05
2017-03-26T04:11:00.632Z,23.28
2017-03-26T04:11:59.920Z,23.48
2017-03-26T04:12:59.245Z,22.83
2017-03-26T04:13:58.509Z,24.03
2017-03-26T04:14:57.773Z,25.17
2017-03-26T04:15:57.084Z,25.07
2017-03-26T04:16:56.398Z,23.32
2017-03-26T04:17:55.666Z,22.07
2017-03-26T04:18:54.933Z,24.78
2017-03-26T04:19:54.212Z,25.35
2017-03-26T04:20:53.489Z,25.48
2017-03-26T04:21:52.809Z,23.05
2017-03-26T04:22:52.124Z,25.50
2017-03-26T04:23:54.983Z,25.73
2017-03-26T04:24:54.206Z,25.58
2017-03-26T04:25:53.482Z,25.40
2017-03-26T04:26:52.800Z,25.62
2017-03-26T04:27:52.111Z,28.28
2017-03-26T04:28:51.377Z,26.87
2017-03-26T04:29:51.087Z,26.27
2017-03-26T04:30:50.547Z,26.75
2017-03-26T04:31:49.836Z,25.85
2017-03-26T04:32:49.125Z,25.47
2017-03-26T04:33:49.322Z,25.13
2017-03-26T04:34:48.580Z,26.27
2017-03-26T04:35:47.913Z,26.53
2017-03-26T04:36:47.208Z,25.15
2017-03-26T04:37:46.494Z,24.07
2017-03-26T04:38:45.738Z,23.38
2017-03-26T04:39:45.018Z,24.87
2017-03-26T04:40:44.279Z,23.85
2017-03-26T04:41:42.840Z,23.88
2017-03-26T04:42:42.147Z,24.12
2017-03-26T04:43:41.425Z,25.03
2017-03-26T04:44:40.758Z,25.93
2017-03-26T04:45:40.061Z,25.38
2017-03-26T04:46:39.361Z,24.92
2017-03-26T04:47:38.706Z,23.58
2017-03-26T04:48:37.994Z,25.78
2017-03-26T04:49:37.247Z,24.30
2017-03-26T04:50:36.510Z,26.68
2017-03-26T04:51:35.861Z,25.05
2017-03-26T04:52:35.271Z,26.07
2017-03-26T04:53:34.553Z,26.58
2017-03-26T04:54:33.877Z,24.97
2017-03-26T04:55:33.146Z,23.70
2017-03-26T04:56:32.436Z,25.22
2017-03-26T04:57:32.769Z,23.83
2017-03-26T04:58:32.322Z,22.43
2017-03-26T04:59:31.595Z,23.22
2017-03-26T05:00:30.904Z,23.58
2017-03-26T05:01:30.203Z,24.25
2017-03-26T05:02:29.485Z,22.28
2017-03-26T05:03:28.781Z,23.57
2017-03-26T05:04:28.107Z,22.32
2017-03-26T05:05:27.381Z,23.37
2017-03-26T05:06:26.653Z,21.87
2017-03-26T05:07:25.932Z,22.25
2017-03-26T05:08:25.243Z,23.55
2017-03-26T05:09:24.540Z,22.95
2017-03-26T05:10:23.828Z,24.25
2017-03-26T05:11:23.126Z,22.88
2017-03-26T05:12:22.442Z,23.85
2017-03-26T05:13:21.780Z,24.47
2017-03-26T05:14:21.113Z,23.97
2017-03-26T05:15:20.375Z,22.78
2017-03-26T05:16:19.678Z,24.55
2017-03-26T05:17:19.714Z,25.50
2017-03-26T05:18:19.045Z,24.80
2017-03-26T05:19:18.383Z,24.25
2017-03-26T05:20:17.676Z,24.80
2017-03-26T05:21:16.977Z,25.45
2017-03-26T05:22:16.286Z,25.13
2017-03-26T05:23:15.648Z,26.17
2017-03-26T05:24:14.993Z,24.58
2017-03-26T05:25:14.338Z,25.82
2017-03-26T05:26:13.628Z,24.50
2017-03-26T05:27:12.984Z,24.15
2017-03-26T05:28:12.352Z,24.52
2017-03-26T05:29:11.669Z,24.73
2017-03-26T05:30:10.980Z,23.87
2017-03-26T05:31:10.351Z,24.28
2017-03-26T05:32:09.727Z,24.20
2017-03-26T05:33:09.083Z,23.52
2017-03-26T05:34:08.421Z,24.30
2017-03-26T05:35:07.727Z,23.17
2017-03-26T05:36:07.073Z,24.10
2017-03-26T05:37:06.428Z,24.47
2017-03-26T05:38:05.801Z,24.45
2017-03-26T05:39:05.120Z,25.32
2017-03-26T05:40:04.410Z,26.02
2017-03-26T05:41:03.703Z,25.18
2017-03-26T05:42:03.041Z,25.28
2017-03-26T05:43:02.391Z,25.32
2017-03-26T05:44:01.747Z,24.93
2017-03-26T05:45:01.222Z,25.72
2017-03-26T05:46:00.490Z,28.27
2017-03-26T05:46:59.758Z,25.67
2017-03-26T05:47:59.103Z,26.30
2017-03-26T05:48:58.455Z,25.60
2017-03-26T05:49:57.728Z,27.08
2017-03-26T05:50:56.997Z,23.35
2017-03-26T05:51:56.284Z,24.30
2017-03-26T05:52:55.566Z,25.23
2017-03-26T05:53:54.910Z,26.42
2017-03-26T05:54:54.210Z,28.93
2017-03-26T05:55:53.502Z,26.12
2017-03-26T05:56:52.775Z,28.10
2017-03-26T05:57:52.025Z,28.35
2017-03-26T05:58:51.355Z,27.18
2017-03-26T05:59:50.613Z,27.67
2017-03-26T06:00:49.944Z,26.25
2017-03-26T06:01:49.194Z,25.67
2017-03-26T06:02:48.494Z,27.48
2017-03-26T06:03:47.867Z,25.98
2017-03-26T06:04:47.163Z,26.58
2017-03-26T06:05:46.445Z,27.97
2017-03-26T06:06:45.744Z,27.52
2017-03-26T06:07:45.081Z,27.35
2017-03-26T06:08:44.353Z,24.75
2017-03-26T06:09:43.616Z,27.15
2017-03-26T06:10:42.900Z,25.15
2017-03-26T06:11:42.149Z,27.78
2017-03-26T06:12:41.431Z,26.42
2017-03-26T06:13:41.049Z,25.03
2017-03-26T06:14:40.411Z,26.25
2017-03-26T06:15:39.687Z,24.85
2017-03-26T06:16:38.986Z,26.23
2017-03-26T06:17:38.291Z,22.50
2017-03-26T06:18:37.549Z,23.68
2017-03-26T06:19:36.856Z,25.60
2017-03-26T06:20:36.142Z,22.75
2017-03-26T06:21:35.389Z,25.63
2017-03-26T06:22:34.732Z,25.27
2017-03-26T06:23:33.986Z,24.25
2017-03-26T06:24:33.870Z,24.42
2017-03-26T06:25:33.189Z,25.48
2017-03-26T06:26:32.469Z,24.73
2017-03-26T06:27:31.705Z,24.95
2017-03-26T06:28:31.012Z,19.82
2017-03-26T06:29:30.315Z,21.45
2017-03-26T06:30:29.855Z,21.38
2017-03-26T06:31:28.353Z,20.87
2017-03-26T06:32:27.645Z,22.63
2017-03-26T06:33:26.965Z,20.63
2017-03-26T06:34:26.297Z,21.75
2017-03-26T06:35:25.582Z,21.17
2017-03-26T06:36:24.912Z,22.60
2017-03-26T06:37:24.545Z,21.07
2017-03-26T06:38:23.884Z,21.33
2017-03-26T06:39:23.228Z,19.97
2017-03-26T06:40:22.540Z,18.53
2017-03-26T06:41:22.551Z,21.00
2017-03-26T06:42:21.859Z,21.48
2017-03-26T06:43:21.540Z,22.20
2017-03-26T06:44:20.866Z,21.07
2017-03-26T06:45:20.157Z,22.48
2017-03-26T06:46:19.479Z,21.23
2017-03-26T06:47:18.802Z,23.63
2017-03-26T06:48:18.790Z,21.53
2017-03-26T06:49:18.129Z,23.80
2017-03-26T06:50:17.389Z,24.13
2017-03-26T06:51:16.677Z,22.70
2017-03-26T06:52:16.097Z,25.65
2017-03-26T06:53:15.401Z,23.85
2017-03-26T06:54:15.302Z,22.65
2017-03-26T06:55:14.664Z,22.65
2017-03-26T06:56:13.955Z,21.62
2017-03-26T06:57:13.252Z,22.98
2017-03-26T06:58:12.607Z,22.87
2017-03-26T06:59:12.260Z,21.45
2017-03-26T07:09:03.313Z,22.53
2017-03-26T07:10:05.497Z,20.00
2017-03-26T07:11:04.849Z,21.07
2017-03-26T07:12:04.326Z,20.38
2017-03-26T07:13:03.591Z,21.90
2017-03-26T07:14:02.901Z,23.77
2017-03-26T07:15:02.196Z,23.18
2017-03-26T07:16:01.526Z,19.82
2017-03-26T07:17:01.574Z,23.37
2017-03-26T07:18:00.863Z,23.72
2017-03-26T07:19:00.173Z,22.63
2017-03-26T07:19:59.558Z,22.05
2017-03-26T07:20:58.934Z,21.63
2017-03-26T07:21:58.222Z,22.33
2017-03-26T07:22:58.257Z,21.43
2017-03-26T07:23:57.523Z,22.92
2017-03-26T07:24:57.108Z,22.42
2017-03-26T07:25:56.430Z,24.38
2017-03-26T07:26:55.665Z,22.33
2017-03-26T07:27:54.912Z,21.90
2017-03-26T07:28:54.196Z,22.18
2017-03-26T07:29:54.190Z,22.45
2017-03-26T07:30:54.226Z,22.35
2017-03-26T07:31:53.506Z,22.87
2017-03-26T07:32:53.509Z,22.38
2017-03-26T07:33:52.848Z,21.73
2017-03-26T07:34:52.130Z,21.77
2017-03-26T07:35:51.443Z,22.63
2017-03-26T07:36:50.705Z,22.18
2017-03-26T07:37:49.995Z,22.43
2017-03-26T07:38:49.253Z,22.60
2017-03-26T07:39:48.565Z,23.10
2017-03-26T07:40:47.946Z,22.58
2017-03-26T07:41:47.254Z,21.85
2017-03-26T07:42:46.508Z,20.45
2017-03-26T07:43:45.843Z,21.70
2017-03-26T07:44:45.073Z,24.18
2017-03-26T07:45:44.557Z,23.00
2017-03-26T07:46:43.868Z,23.12
2017-03-26T07:47:43.129Z,21.40
2017-03-26T07:48:42.439Z,23.33
2017-03-26T07:49:41.720Z,22.23
2017-03-26T07:50:41.076Z,22.80
2017-03-26T07:51:40.321Z,21.17
2017-03-26T07:52:39.604Z,21.92
2017-03-26T07:53:38.900Z,20.90
2017-03-26T07:54:38.243Z,22.52
2017-03-26T07:55:37.590Z,21.28
2017-03-26T07:56:36.868Z,21.60
2017-03-26T07:57:36.148Z,20.08
2017-03-26T07:58:35.396Z,21.15
2017-03-26T07:59:34.727Z,20.85
2017-03-26T08:00:34.017Z,21.43
2017-03-26T08:01:33.325Z,18.68
2017-03-26T08:02:34.773Z,20.73
2017-03-26T08:03:34.134Z,20.63
2017-03-26T08:04:33.503Z,19.02
2017-03-26T08:05:33.606Z,19.37
2017-03-26T08:06:32.866Z,19.73
2017-03-26T08:07:32.173Z,19.68
2017-03-26T08:08:31.464Z,19.87
2017-03-26T08:09:30.799Z,19.72
2017-03-26T08:10:30.127Z,19.58
2017-03-26T08:11:29.465Z,17.73
2017-03-26T08:12:28.783Z,18.32
2017-03-26T08:13:28.205Z,19.77
2017-03-26T08:14:27.449Z,19.12
2017-03-26T08:15:27.311Z,19.17
2017-03-26T08:16:26.679Z,17.85
2017-03-26T08:17:26.255Z,19.60
2017-03-26T08:18:25.549Z,18.93
2017-03-26T08:19:24.793Z,21.42
2017-03-26T08:20:24.068Z,18.48
2017-03-26T08:21:23.366Z,20.60
2017-03-26T08:22:22.585Z,21.07
2017-03-26T08:23:22.503Z,18.30
2017-03-26T08:24:21.825Z,19.50
2017-03-26T08:25:21.128Z,19.17
2017-03-26T08:26:20.432Z,19.98
2017-03-26T08:27:19.698Z,19.15
2017-03-26T08:28:19.011Z,21.07
2017-03-26T08:29:18.346Z,18.43
2017-03-26T08:30:18.391Z,18.53
2017-03-26T08:31:17.688Z,16.48
2017-03-26T08:32:17.190Z,17.47
2017-03-26T08:33:16.490Z,17.15
2017-03-26T08:34:15.805Z,16.68
2017-03-26T08:35:15.081Z,16.82
2017-03-26T08:36:14.381Z,16.68
2017-03-26T08:37:13.704Z,16.27
2017-03-26T08:38:13.010Z,17.47
2017-03-26T08:39:12.297Z,18.47
2017-03-26T08:40:11.599Z,16.32
2017-03-26T08:41:10.942Z,17.02
2017-03-26T08:42:10.281Z,15.27
2017-03-26T08:49:03.305Z,15.45
2017-03-26T08:50:03.362Z,13.38
2017-03-26T08:51:02.743Z,16.17
2017-03-26T08:52:02.886Z,14.95
2017-03-26T08:53:02.147Z,16.63
2017-03-26T08:54:01.487Z,16.15
2017-03-26T08:55:00.788Z,15.02
2017-03-26T08:56:00.072Z,13.43
2017-03-26T08:56:59.404Z,12.42
2017-03-26T08:57:58.699Z,13.17
2017-03-26T08:58:57.986Z,15.82
2017-03-26T08:59:57.257Z,13.98
2017-03-26T09:00:56.517Z,15.80
2017-03-26T09:01:55.862Z,15.07
2017-03-26T09:02:55.158Z,13.68
2017-03-26T09:03:54.446Z,15.33
2017-03-26T09:04:53.801Z,15.55
2017-03-26T09:05:53.810Z,14.03
2017-03-26T09:06:53.130Z,14.42
2017-03-26T09:07:52.453Z,15.98
2017-03-26T09:08:51.702Z,13.97
2017-03-26T09:09:51.010Z,14.60
2017-03-26T09:10:50.315Z,14.98
2017-03-26T09:11:49.599Z,14.88
2017-03-26T09:12:48.883Z,14.42
2017-03-26T09:13:48.209Z,15.12
2017-03-26T09:14:47.501Z,13.33
2017-03-26T09:15:46.777Z,14.05
2017-03-26T09:16:46.115Z,14.72
2017-03-26T09:17:45.424Z,12.83
2017-03-26T09:18:44.717Z,14.87
2017-03-26T09:19:43.966Z,13.42
2017-03-26T09:20:43.300Z,13.50
2017-03-26T09:21:44.098Z,13.73
2017-03-26T09:22:43.386Z,13.00
2017-03-26T09:23:42.670Z,13.72
2017-03-26T09:24:42.009Z,13.42
2017-03-26T09:25:41.337Z,13.80
2017-03-26T09:26:40.622Z,13.68
2017-03-26T09:27:39.957Z,12.77
2017-03-26T09:28:39.277Z,13.62
2017-03-26T09:29:38.545Z,13.40
2017-03-26T09:30:37.846Z,13.05
2017-03-26T09:31:37.179Z,13.23
2017-03-26T09:32:36.501Z,12.78
2017-03-26T09:33:35.837Z,13.20
2017-03-26T09:34:35.133Z,13.43
2017-03-26T09:35:34.463Z,14.15
2017-03-26T09:36:34.033Z,12.80
2017-03-26T09:37:33.357Z,12.97
2017-03-26T09:38:33.380Z,12.38
2017-03-26T09:39:32.679Z,11.92
2017-03-26T09:40:31.994Z,8.98
2017-03-26T09:41:31.321Z,11.85
2017-03-26T09:42:31.394Z,13.05
2017-03-26T09:43:30.706Z,11.38
2017-03-26T09:44:30.025Z,11.15
2017-03-26T09:45:29.286Z,11.82
2017-03-26T09:46:28.604Z,12.98
2017-03-26T09:47:27.990Z,11.75
2017-03-26T09:48:27.362Z,11.07
2017-03-26T09:49:26.684Z,10.90
2017-03-26T09:50:25.999Z,10.63
2017-03-26T09:51:25.310Z,10.03
2017-03-26T09:52:24.637Z,11.55
2017-03-26T09:53:23.927Z,10.97
2017-03-26T09:54:23.971Z,10.70
2017-03-26T09:55:24.028Z,9.67
2017-03-26T09:56:23.419Z,9.53
2017-03-26T09:57:23.204Z,10.88
2017-03-26T09:58:22.496Z,11.48
2017-03-26T09:59:21.789Z,10.35
2017-03-26T10:00:21.190Z,9.93
2017-03-26T10:01:20.514Z,10.17
2017-03-26T10:02:19.901Z,10.85
2017-03-26T10:03:19.291Z,9.77
2017-03-26T10:04:19.589Z,11.95
2017-03-26T10:05:18.906Z,9.80
2017-03-26T10:06:18.196Z,7.85
2017-03-26T10:07:17.480Z,9.15
2017-03-26T10:08:16.873Z,6.55
2017-03-26T10:09:16.188Z,4.63
2017-03-26T10:10:15.480Z,6.35
2017-03-26T10:11:14.856Z,6.17
2017-03-26T10:12:14.256Z,6.45
2017-03-26T10:13:13.611Z,5.15
2017-03-26T10:14:12.896Z,6.25
2017-03-26T10:15:12.307Z,4.67
2017-03-26T10:16:13.465Z,5.17
2017-03-26T10:17:14.408Z,5.57
2017-03-26T10:18:13.763Z,5.33
2017-03-26T10:19:13.062Z,5.58
2017-03-26T10:20:12.391Z,4.67
2017-03-26T10:29:02.940Z,4.78
2017-03-26T10:30:02.258Z,4.08
2017-03-26T10:31:02.329Z,5.13
2017-03-26T10:32:01.643Z,4.30
2017-03-26T10:33:00.963Z,5.73
2017-03-26T10:34:00.593Z,6.73
2017-03-26T10:34:59.893Z,6.42
2017-03-26T10:35:59.250Z,6.65
2017-03-26T10:36:58.543Z,5.15
2017-03-26T10:37:57.835Z,7.25
2017-03-26T10:38:57.210Z,6.00
2017-03-26T10:39:56.478Z,6.55
2017-03-26T10:40:55.801Z,6.13
2017-03-26T10:41:55.133Z,5.48
2017-03-26T10:42:55.160Z,6.38
2017-03-26T10:43:54.478Z,5.53
2017-03-26T10:44:53.821Z,5.68
2017-03-26T10:45:53.101Z,6.18
2017-03-26T10:46:52.419Z,6.23
2017-03-26T10:47:51.823Z,6.18
2017-03-26T10:48:51.879Z,5.93
2017-03-26T10:49:51.187Z,6.27
2017-03-26T10:50:50.522Z,6.02
2017-03-26T10:51:49.821Z,6.05
2017-03-26T10:52:49.097Z,5.95
2017-03-26T10:53:49.169Z,6.93
2017-03-26T10:54:48.513Z,6.45
2017-03-26T10:55:47.841Z,5.25
2017-03-26T10:56:47.139Z,5.35
2017-03-26T10:57:46.445Z,6.05
2017-03-26T10:58:45.778Z,5.85
2017-03-26T10:59:45.153Z,6.25
2017-03-26T11:00:44.508Z,5.40
2017-03-26T11:01:43.775Z,5.43
2017-03-26T11:02:43.068Z,5.62
2017-03-26T11:03:42.373Z,4.93
2017-03-26T11:04:41.720Z,4.62
2017-03-26T11:05:41.079Z,5.90
2017-03-26T11:06:40.397Z,6.03
2017-03-26T11:07:39.801Z,6.03
2017-03-26T11:08:39.151Z,5.25
2017-03-26T11:09:38.461Z,6.10
2017-03-26T11:10:37.823Z,5.85
2017-03-26T11:11:37.143Z,6.55
2017-03-26T11:12:36.475Z,5.52
2017-03-26T11:13:36.203Z,5.57
2017-03-26T11:14:35.607Z,5.20
2017-03-26T11:15:34.911Z,5.58
2017-03-26T11:16:34.492Z,6.17
2017-03-26T11:17:35.863Z,5.27
2017-03-26T11:18:35.287Z,5.68
2017-03-26T11:19:35.993Z,5.67
2017-03-26T11:20:35.359Z,6.52
2017-03-26T11:21:34.674Z,5.78
2017-03-26T11:22:34.031Z,5.28
2017-03-26T11:23:33.345Z,5.82
2017-03-26T11:24:32.741Z,5.88
2017-03-26T11:25:32.065Z,6.07
2017-03-26T11:26:31.392Z,5.82
2017-03-26T11:27:30.717Z,6.67
2017-03-26T11:28:30.101Z,5.96
2017-03-26T11:29:29.598Z,5.85
2017-03-26T11:30:28.927Z,5.88
2017-03-26T11:31:28.276Z,6.25
2017-03-26T11:32:27.783Z,6.77
2017-03-26T11:33:27.127Z,6.98
2017-03-26T11:34:26.564Z,6.15
2017-03-26T11:35:25.889Z,6.60
2017-03-26T11:36:25.268Z,6.10
2017-03-26T11:37:24.572Z,6.13
2017-03-26T11:38:23.982Z,6.32
2017-03-26T11:39:23.315Z,5.90
2017-03-26T11:40:22.588Z,5.68
2017-03-26T11:41:21.868Z,6.07
2017-03-26T11:42:21.175Z,5.72
2017-03-26T11:43:20.527Z,5.78
2017-03-26T11:44:19.866Z,6.45
2017-03-26T11:45:19.241Z,6.50
2017-03-26T11:46:18.555Z,5.95
2017-03-26T11:47:17.869Z,6.73
2017-03-26T11:48:17.197Z,5.62
2017-03-26T11:49:16.559Z,6.57
2017-03-26T11:50:15.908Z,6.70
2017-03-26T11:51:15.272Z,6.17
2017-03-26T11:52:14.602Z,6.42
2017-03-26T11:53:13.971Z,6.70
2017-03-26T11:54:13.643Z,5.42
2017-03-26T11:55:13.048Z,6.07
2017-03-26T11:56:12.376Z,8.28
2017-03-26T11:57:11.786Z,9.87
2017-03-26T11:58:11.157Z,10.12
2017-03-26T11:59:10.570Z,10.08
2017-03-26T12:00:10.012Z,9.75
2017-03-26T12:01:09.380Z,9.72
2017-03-26T12:02:09.001Z,9.63
2017-03-26T12:03:09.055Z,10.40
2017-03-26T12:04:08.441Z,10.28
2017-03-26T12:05:07.830Z,10.33
2017-03-26T12:06:07.381Z,9.72
2017-03-26T12:07:06.968Z,10.53
2017-03-26T12:08:06.280Z,9.05
2017-03-26T12:09:06.047Z,9.52
2017-03-26T12:10:05.514Z,9.67
2017-03-26T12:11:04.906Z,10.23
2017-03-26T12:12:04.347Z,9.53
2017-03-26T12:13:03.661Z,9.63
2017-03-26T12:14:02.941Z,9.67
2017-03-26T12:15:02.502Z,9.42
2017-03-26T12:16:01.794Z,8.63
2017-03-26T12:17:01.114Z,8.35
2017-03-26T12:18:00.526Z,9.28
2017-03-26T12:18:59.798Z,9.87
2017-03-26T12:19:59.127Z,9.57
2017-03-26T12:20:58.437Z,9.13
2017-03-26T12:21:57.788Z,9.12
2017-03-26T12:22:57.083Z,8.53
2017-03-26T12:23:56.383Z,8.27
2017-03-26T12:24:55.893Z,8.77
2017-03-26T12:25:55.166Z,8.50
2017-03-26T12:26:54.474Z,8.98
2017-03-26T12:27:53.965Z,8.35
2017-03-26T12:28:53.478Z,8.18
2017-03-26T12:29:52.793Z,7.87
2017-03-26T12:30:52.151Z,8.33
2017-03-26T12:31:51.462Z,9.97
2017-03-26T12:32:50.772Z,8.30
2017-03-26T12:33:50.130Z,8.77
2017-03-26T12:34:49.737Z,8.57
2017-03-26T12:35:49.041Z,9.38
2017-03-26T12:36:48.432Z,8.70
2017-03-26T12:37:47.660Z,8.42
2017-03-26T12:38:46.948Z,7.83
2017-03-26T12:39:46.196Z,9.92
2017-03-26T12:40:45.544Z,8.57
2017-03-26T12:41:44.805Z,8.30
2017-03-26T12:42:44.072Z,8.83
2017-03-26T12:43:43.375Z,9.57
2017-03-26T12:44:42.674Z,7.57
2017-03-26T12:45:41.960Z,8.73
2017-03-26T12:46:41.240Z,8.18
2017-03-26T12:47:40.520Z,7.57
2017-03-26T12:48:39.817Z,7.50
2017-03-26T12:49:39.106Z,8.75
2017-03-26T12:50:38.399Z,7.40
2017-03-26T12:51:37.652Z,7.70
2017-03-26T12:52:36.938Z,7.05
2017-03-26T12:53:36.412Z,5.92
2017-03-26T12:54:35.698Z,6.33
2017-03-26T12:55:35.067Z,6.03
2017-03-26T12:56:35.056Z,5.82
2017-03-26T12:57:34.376Z,5.97
2017-03-26T12:58:33.662Z,6.27
2017-03-26T12:59:32.916Z,7.87
2017-03-26T13:00:32.255Z,6.58
2017-03-26T13:01:31.613Z,6.98
2017-03-26T13:02:30.915Z,8.02
2017-03-26T13:03:30.291Z,7.58
2017-03-26T13:04:29.599Z,6.52
2017-03-26T13:05:29.059Z,7.72
2017-03-26T13:06:28.303Z,5.97
2017-03-26T13:07:27.599Z,6.70
2017-03-26T13:08:26.870Z,6.40
2017-03-26T13:09:26.182Z,6.07
2017-03-26T13:10:25.914Z,5.63
2017-03-26T13:11:25.269Z,5.78
2017-03-26T13:12:25.296Z,6.82
2017-03-26T13:13:24.619Z,6.73